Time;durP1;ratioP1;P1;durP2;ratioP2;P2;SDS_P1;SDS_P2;PMS_P1;PMS_P2;Temp;Humidity;BMP_temperature;BMP_pressure;BME280_temperature;BME280_humidity;BME280_pressure;Samples;Min_cycle;Max_cycle;Signal;HPM_P1;HPM_P2
2022/06/13 00:00:26;;;;;;;2.33;1.25;;;15.30;99.90;;;;;;5056252;28;20028;-85
2022/06/13 00:02:51;;;;;;;3.35;1.60;;;15.30;99.90;;;;;;5074209;28;20016;-85
2022/06/13 00:05:18;;;;;;;4.10;1.58;;;15.30;99.90;;;;;;5056153;28;20043;-85
2022/06/13 00:07:44;;;;;;;2.90;1.58;;;15.30;99.90;;;;;;5075211;28;20066;-85
2022/06/13 00:10:11;;;;;;;2.28;1.50;;;15.20;99.90;;;;;;5056445;28;20071;-85
2022/06/13 00:12:38;;;;;;;3.28;1.60;;;15.20;99.90;;;;;;5056149;28;20029;-85
2022/06/13 00:15:05;;;;;;;2.95;1.40;;;15.20;99.90;;;;;;5055992;28;20423;-85
2022/06/13 00:17:31;;;;;;;3.55;1.50;;;15.10;99.90;;;;;;5056047;28;20489;-85
2022/06/13 00:19:56;;;;;;;3.55;1.60;;;15.00;99.90;;;;;;5056026;28;20035;-85
2022/06/13 00:22:22;;;;;;;3.45;1.60;;;15.00;99.90;;;;;;5055992;28;20025;-85
2022/06/13 00:24:48;;;;;;;3.65;1.60;;;14.90;99.90;;;;;;5055731;28;20495;-85
2022/06/13 00:27:15;;;;;;;2.80;1.40;;;14.90;99.90;;;;;;5074018;28;20557;-85
2022/06/13 00:29:42;;;;;;;3.78;1.67;;;14.90;99.90;;;;;;5055673;28;20032;-85
2022/06/13 00:32:08;;;;;;;3.78;1.83;;;14.90;99.90;;;;;;5055719;28;20024;-85
2022/06/13 00:34:33;;;;;;;2.47;1.60;;;15.00;99.90;;;;;;5055538;28;20024;-85
2022/06/13 00:36:59;;;;;;;6.97;3.63;;;15.00;99.90;;;;;;5055728;28;20027;-85
2022/06/13 00:39:25;;;;;;;4.25;2.40;;;14.80;99.90;;;;;;5055406;28;20055;-85
2022/06/13 00:41:50;;;;;;;3.97;2.15;;;14.80;99.90;;;;;;5055668;28;20043;-85
2022/06/13 00:44:32;;;;;;;4.25;2.58;;;14.70;99.90;;;;;;5055429;28;20020;-85
2022/06/13 00:46:58;;;;;;;4.22;2.22;;;14.60;99.90;;;;;;5073632;28;20575;-85
2022/06/13 00:49:41;;;;;;;3.10;1.80;;;14.50;99.90;;;;;;5055492;28;20032;-85
2022/06/13 00:52:20;;;;;;;4.32;2.30;;;14.50;99.90;;;;;;5055588;28;20035;-85
2022/06/13 00:54:49;;;;;;;4.13;2.10;;;14.40;99.90;;;;;;5055402;28;20412;-85
2022/06/13 00:57:27;;;;;;;2.58;1.67;;;14.40;99.90;;;;;;5055398;28;20025;-85
2022/06/13 01:00:04;;;;;;;2.92;1.80;;;14.50;99.90;;;;;;5055486;28;20078;-85
2022/06/13 01:02:31;;;;;;;2.20;1.63;;;14.50;99.90;;;;;;5054362;28;20119;-85
2022/06/13 01:04:59;;;;;;;2.40;1.60;;;14.50;99.90;;;;;;5066920;28;20020;-85
2022/06/13 01:07:27;;;;;;;2.63;1.67;;;14.40;99.90;;;;;;5068784;28;20350;-85
2022/06/13 01:12:37;;;;;;;2.60;1.63;;;14.50;99.90;;;;;;5058048;28;20038;-85
2022/06/13 01:15:18;;;;;;;2.55;1.65;;;14.40;99.90;;;;;;5054665;28;20070;-85
2022/06/13 01:18:02;;;;;;;4.65;2.08;;;14.40;99.90;;;;;;5068457;28;20029;-85
2022/06/13 01:20:33;;;;;;;3.15;1.90;;;14.40;99.90;;;;;;5035251;28;20060;-85
2022/06/13 01:23:13;;;;;;;2.60;1.95;;;14.30;99.90;;;;;;5035381;28;20426;-85
2022/06/13 01:25:53;;;;;;;3.25;1.90;;;14.20;99.90;;;;;;5053091;28;20064;-85
2022/06/13 01:28:24;;;;;;;3.63;1.98;;;14.10;99.90;;;;;;5055320;28;20485;-85
2022/06/13 01:30:55;;;;;;;4.28;1.65;;;14.00;99.90;;;;;;5052892;28;20029;-85
2022/06/13 01:33:36;;;;;;;;;;;14.00;99.90;;;;;;5035544;28;20053;-85
2022/06/13 01:36:29;;;;;;;2.60;1.75;;;14.00;99.90;;;;;;5035266;28;19911;-85
2022/06/13 01:39:32;;;;;;;3.13;2.30;;;14.10;99.90;;;;;;5034844;28;20037;-85
2022/06/13 01:42:15;;;;;;;3.40;2.10;;;14.10;99.90;;;;;;5035007;28;20059;-84
2022/06/13 01:45:00;;;;;;;3.40;2.20;;;14.10;99.90;;;;;;5034948;28;20108;-85
2022/06/13 01:47:52;;;;;;;4.05;2.20;;;14.10;99.90;;;;;;5035061;28;20485;-85
2022/06/13 01:50:50;;;;;;;4.72;2.13;;;14.10;99.90;;;;;;5053446;28;20021;-85
2022/06/13 01:53:35;;;;;;;3.38;2.15;;;14.00;99.90;;;;;;5050867;28;20033;-85
2022/06/13 01:56:00;;;;;;;3.25;2.17;;;13.90;99.90;;;;;;5035032;28;20037;-85
2022/06/13 01:58:44;;;;;;;3.28;2.17;;;13.90;99.90;;;;;;5053035;28;20488;-85
2022/06/13 02:01:21;;;;;;;5.28;2.15;;;13.90;99.90;;;;;;5052816;28;20032;-84
2022/06/13 02:04:07;;;;;;;3.58;2.28;;;13.80;99.90;;;;;;5034967;28;20032;-84
2022/06/13 02:06:38;;;;;;;2.63;1.85;;;13.90;99.90;;;;;;5053015;28;20025;-84
2022/06/13 02:09:15;;;;;;;;;;;14.00;99.90;;;;;;5036951;28;20028;-84
2022/06/13 02:11:49;;;;;;;4.28;2.40;;;14.00;99.90;;;;;;5056574;28;19916;-85
2022/06/13 02:14:38;;;;;;;3.55;2.08;;;14.10;99.90;;;;;;5038406;28;20025;-85
2022/06/13 02:17:14;;;;;;;3.33;1.95;;;14.10;99.90;;;;;;5056186;28;20025;-85
2022/06/13 02:19:54;;;;;;;3.50;2.10;;;14.10;99.90;;;;;;5038331;28;20025;-85
2022/06/13 02:22:36;;;;;;;6.05;2.13;;;14.10;99.90;;;;;;5038282;28;20390;-85
2022/06/13 02:25:28;;;;;;;3.75;2.10;;;14.00;99.90;;;;;;5038139;28;20017;-85
2022/06/13 02:28:09;;;;;;;4.38;2.00;;;14.10;99.90;;;;;;4993344;28;20037;-85
2022/06/13 02:30:47;;;;;;;2.83;1.77;;;14.10;99.90;;;;;;5038144;28;20028;-85
2022/06/13 02:33:20;;;;;;;3.88;2.03;;;14.20;99.90;;;;;;5038026;28;20033;-85
2022/06/13 02:35:51;;;;;;;4.25;2.20;;;14.20;99.90;;;;;;5037937;28;20029;-85
2022/06/13 02:38:26;;;;;;;2.90;2.13;;;14.20;99.90;;;;;;5037935;28;20035;-85
2022/06/13 02:41:00;;;;;;;4.00;2.05;;;14.20;99.90;;;;;;5037850;28;20044;-85
2022/06/13 02:43:44;;;;;;;6.47;2.63;;;14.10;99.90;;;;;;5037902;28;20045;-85
2022/06/13 02:46:30;;;;;;;5.35;2.40;;;13.90;99.90;;;;;;5038531;28;20445;-84
2022/06/13 02:49:01;;;;;;;3.92;2.70;;;13.80;99.90;;;;;;5037855;28;20059;-85
2022/06/13 02:51:44;;;;;;;3.83;2.65;;;13.80;99.90;;;;;;5037695;28;20486;-85
2022/06/13 02:54:35;;;;;;;5.57;3.08;;;13.90;99.90;;;;;;5055803;28;20032;-85
2022/06/13 02:57:27;;;;;;;3.95;2.50;;;13.90;99.90;;;;;;5037645;28;20031;-84
2022/06/13 03:00:11;;;;;;;;;;;14.00;99.90;;;;;;5056077;28;20025;-84
2022/06/13 03:02:55;;;;;;;3.83;2.80;;;14.00;99.90;;;;;;5037356;28;20358;-84
2022/06/13 03:05:38;;;;;;;4.07;2.55;;;14.10;99.90;;;;;;5037263;28;20025;-84
2022/06/13 03:08:32;;;;;;;6.15;2.80;;;14.00;99.90;;;;;;5055213;28;20023;-84
2022/06/13 03:11:06;;;;;;;4.28;2.63;;;14.10;99.90;;;;;;5037407;28;20039;-84
2022/06/13 03:14:03;;;;;;;3.42;2.50;;;14.10;99.90;;;;;;5037313;28;20063;-84
2022/06/13 03:16:50;;;;;;;4.00;2.63;;;14.10;99.90;;;;;;5037548;28;20043;-83
2022/06/13 03:19:21;;;;;;;5.85;2.67;;;14.10;99.90;;;;;;5036811;28;20401;-83
2022/06/13 03:21:52;;;;;;;3.50;2.40;;;14.10;99.90;;;;;;5036435;28;20055;-83
2022/06/13 03:24:32;;;;;;;3.70;2.38;;;14.10;99.90;;;;;;5037290;28;20029;-83
2022/06/13 03:27:04;;;;;;;4.57;2.70;;;14.10;99.90;;;;;;5037639;28;20029;-83
2022/06/13 03:29:57;;;;;;;8.02;3.47;;;14.00;99.90;;;;;;5037222;28;20055;-83
2022/06/13 03:32:40;;;;;;;5.18;3.22;;;14.00;99.90;;;;;;5054967;28;20424;-83
2022/06/13 03:35:12;;;;;;;5.65;3.03;;;14.00;99.90;;;;;;5036789;28;20029;-82
2022/06/13 03:37:46;;;;;;;6.28;3.47;;;14.00;99.90;;;;;;5054840;28;20418;-82
2022/06/13 03:43:59;;;;;;;4.95;3.05;;;14.10;99.90;;;;;;5036447;28;20392;-82
2022/06/13 03:46:47;;;;;;;4.40;2.92;;;14.10;99.90;;;;;;5074196;28;20491;-82
2022/06/13 03:49:33;;;;;;;5.68;3.08;;;14.00;99.90;;;;;;5074293;28;20025;-83
2022/06/13 03:52:01;;;;;;;4.07;2.95;;;14.00;99.90;;;;;;5056539;28;20434;-82
2022/06/13 03:54:47;;;;;;;4.63;3.00;;;13.90;99.90;;;;;;5056358;28;20111;-82
2022/06/13 03:57:20;;;;;;;5.78;2.70;;;13.80;99.90;;;;;;5067334;28;20020;-82
2022/06/13 04:00:02;;;;;;;5.18;2.83;;;13.80;99.90;;;;;;5056347;28;20048;-83
2022/06/13 04:02:31;;;;;;;3.67;2.90;;;13.80;99.90;;;;;;5073747;28;20028;-82
2022/06/13 04:04:57;;;;;;;4.30;2.72;;;13.80;99.90;;;;;;5074158;28;20032;-83
2022/06/13 04:07:25;;;;;;;5.38;3.28;;;13.80;99.90;;;;;;5057257;28;20020;-83
2022/06/13 04:10:06;;;;;;;3.60;2.97;;;13.80;99.90;;;;;;5056047;28;20100;-83
2022/06/13 04:12:53;;;;;;;5.55;3.17;;;13.90;99.90;;;;;;5072857;28;20047;-83
2022/06/13 04:15:41;;;;;;;4.53;2.90;;;14.00;99.90;;;;;;5071851;28;20040;-82
2022/06/13 04:18:36;;;;;;;5.35;3.50;;;14.00;99.90;;;;;;5071510;28;20021;-82
2022/06/13 04:21:27;;;;;;;4.93;3.25;;;14.00;99.90;;;;;;5053603;28;20116;-83
2022/06/13 04:24:08;;;;;;;4.63;2.90;;;13.90;99.90;;;;;;5072208;28;20024;-82
2022/06/13 04:26:44;;;;;;;5.35;4.05;;;13.80;99.90;;;;;;5055453;28;20128;-82
2022/06/13 04:29:19;;;;;;;6.45;3.40;;;13.80;99.90;;;;;;5056091;28;20029;-82
2022/06/13 04:31:45;;;;;;;4.93;3.58;;;13.80;99.90;;;;;;5073434;28;20029;-82
2022/06/13 04:34:18;;;;;;;10.15;5.70;;;13.80;99.90;;;;;;5055780;28;20488;-82
2022/06/13 04:36:46;;;;;;;6.88;3.75;;;13.90;99.90;;;;;;5055942;28;20033;-81
2022/06/13 04:39:17;;;;;;;6.85;4.00;;;13.90;99.90;;;;;;5073793;28;20044;-81
2022/06/13 04:41:45;;;;;;;5.35;3.75;;;13.90;99.90;;;;;;5073943;28;20025;-81
2022/06/13 04:44:18;;;;;;;5.22;3.15;;;13.90;99.90;;;;;;5055608;28;20044;-80
2022/06/13 04:46:44;;;;;;;6.35;3.17;;;13.90;99.90;;;;;;5073886;28;20391;-81
2022/06/13 04:49:28;;;;;;;4.35;3.42;;;14.00;99.90;;;;;;5073539;28;20036;-80
2022/06/13 04:51:56;;;;;;;4.53;3.20;;;13.90;99.90;;;;;;5073834;28;20020;-80
2022/06/13 04:54:34;;;;;;;6.22;3.47;;;13.90;99.90;;;;;;5073437;28;20035;-80
2022/06/13 04:57:01;;;;;;;6.60;4.13;;;13.90;99.90;;;;;;5073538;28;20036;-81
2022/06/13 04:59:28;;;;;;;5.05;3.53;;;13.80;99.90;;;;;;5073964;28;20381;-81
2022/06/13 05:01:56;;;;;;;7.00;3.33;;;13.80;99.90;;;;;;5055397;28;20024;-80
2022/06/13 05:04:26;;;;;;;5.45;3.33;;;13.80;99.90;;;;;;5073264;28;20069;-80
2022/06/13 05:07:11;;;;;;;5.20;3.60;;;13.80;99.90;;;;;;5073698;28;20023;-80
2022/06/13 05:09:42;;;;;;;7.57;3.90;;;13.80;99.90;;;;;;5073688;28;20035;-80
2022/06/13 05:12:36;;;;;;;4.70;3.15;;;13.80;99.90;;;;;;5073908;28;20025;-80
2022/06/13 05:15:09;;;;;;;4.65;3.28;;;13.80;99.90;;;;;;5075035;28;20024;-80
2022/06/13 05:17:50;;;;;;;6.70;3.53;;;13.80;99.90;;;;;;5073986;28;20078;-80
2022/06/13 05:20:21;;;;;;;8.60;3.27;;;13.80;99.90;;;;;;5073483;28;20358;-81
2022/06/13 05:23:21;;;;;;;5.13;3.70;;;13.80;99.90;;;;;;5055391;28;20029;-81
2022/06/13 05:25:49;;;;;;;6.68;3.28;;;13.80;99.90;;;;;;5055360;28;20044;-81
2022/06/13 05:28:18;;;;;;;3.15;2.50;;;13.80;99.90;;;;;;5073381;28;20024;-81
2022/06/13 05:30:47;;;;;;;5.88;3.60;;;13.90;99.90;;;;;;5055285;28;20662;-81
2022/06/13 05:33:16;;;;;;;4.78;3.53;;;14.00;99.90;;;;;;5073139;28;20028;-81
2022/06/13 05:35:43;;;;;;;5.00;3.20;;;14.00;99.90;;;;;;5074095;28;20027;-81
2022/06/13 05:38:38;;;;;;;4.60;3.33;;;14.00;99.90;;;;;;5055200;28;20067;-81
2022/06/13 05:41:04;;;;;;;5.50;3.40;;;14.00;99.90;;;;;;5052855;28;20119;-81
2022/06/13 05:43:30;;;;;;;4.75;3.10;;;14.00;99.90;;;;;;5073910;28;20062;-81
2022/06/13 05:45:56;;;;;;;4.63;3.20;;;14.10;99.90;;;;;;5058780;28;20021;-81
2022/06/13 05:48:23;;;;;;;7.53;4.05;;;14.20;99.90;;;;;;5058794;28;20024;-81
2022/06/13 05:50:49;;;;;;;4.78;3.33;;;14.20;99.90;;;;;;5076756;28;20024;-81
2022/06/13 05:53:20;;;;;;;6.15;3.80;;;14.20;99.90;;;;;;5076632;28;20031;-81
2022/06/13 05:55:47;;;;;;;4.57;3.65;;;14.30;99.90;;;;;;5058596;28;20031;-81
2022/06/13 05:58:15;;;;;;;5.00;3.90;;;14.30;99.90;;;;;;5058661;28;20493;-81
2022/06/13 06:00:53;;;;;;;8.75;3.60;;;14.30;99.90;;;;;;5058503;28;20613;-81
2022/06/13 06:03:19;;;;;;;5.78;3.75;;;14.30;99.90;;;;;;5058532;28;20027;-81
2022/06/13 06:05:46;;;;;;;4.72;3.40;;;14.40;99.90;;;;;;5058419;28;20031;-81
2022/06/13 06:08:29;;;;;;;4.57;3.25;;;14.40;99.90;;;;;;5076625;28;20025;-81
2022/06/13 06:10:57;;;;;;;6.70;3.42;;;14.50;99.90;;;;;;5076334;28;20035;-81
2022/06/13 06:13:24;;;;;;;5.53;4.03;;;14.50;99.90;;;;;;5076238;28;20099;-81
2022/06/13 06:15:50;;;;;;;5.20;3.65;;;14.50;99.90;;;;;;5076167;28;20028;-81
2022/06/13 06:18:18;;;;;;;6.07;3.38;;;14.50;99.90;;;;;;5076360;28;20028;-81
2022/06/13 06:20:44;;;;;;;5.40;3.30;;;14.60;99.90;;;;;;5076710;28;20111;-81
2022/06/13 06:23:12;;;;;;;4.85;3.50;;;14.60;99.90;;;;;;5076060;28;20044;-82
2022/06/13 06:25:39;;;;;;;4.82;2.95;;;14.70;99.90;;;;;;5076341;28;20012;-82
2022/06/13 06:28:05;;;;;;;4.30;3.10;;;14.70;99.90;;;;;;5076296;28;20473;-82
2022/06/13 06:30:32;;;;;;;5.03;3.45;;;14.90;99.90;;;;;;5058082;28;20045;-82
2022/06/13 06:32:58;;;;;;;4.55;3.25;;;15.00;99.90;;;;;;5077302;28;20028;-81
2022/06/13 06:35:26;;;;;;;5.03;3.30;;;15.10;99.90;;;;;;5075826;28;20035;-82
2022/06/13 06:37:53;;;;;;;5.72;3.33;;;15.10;99.90;;;;;;5058084;28;20081;-82
2022/06/13 06:40:21;;;;;;;4.18;3.55;;;15.20;99.90;;;;;;5075813;28;20110;-81
2022/06/13 06:42:46;;;;;;;4.72;3.28;;;15.20;99.90;;;;;;5058313;28;20071;-81
2022/06/13 06:45:12;;;;;;;4.60;3.40;;;15.20;99.90;;;;;;5076206;28;20370;-81
2022/06/13 06:47:39;;;;;;;7.63;3.60;;;15.30;99.90;;;;;;5075667;28;20021;-81
2022/06/13 06:50:11;;;;;;;5.60;3.38;;;15.30;99.90;;;;;;5075902;28;20043;-81
2022/06/13 06:52:36;;;;;;;5.47;3.42;;;15.30;99.90;;;;;;5075670;28;20021;-82
2022/06/13 07:00:30;;;;;;;6.78;4.00;;;15.50;99.90;;;;;;5075528;28;20027;-82
2022/06/13 07:02:57;;;;;;;5.72;4.43;;;15.50;99.90;;;;;;5057417;28;20119;-81
2022/06/13 07:05:23;;;;;;;7.20;3.80;;;15.50;99.90;;;;;;5075232;28;20078;-81
2022/06/13 07:07:48;;;;;;;6.47;3.83;;;15.50;99.90;;;;;;5073942;28;20029;-82
2022/06/13 07:10:14;;;;;;;4.78;3.53;;;15.60;99.90;;;;;;5075660;28;20017;-82
2022/06/13 07:12:40;;;;;;;5.20;3.53;;;15.60;99.90;;;;;;5057269;28;20485;-82
2022/06/13 07:15:06;;;;;;;4.15;3.45;;;15.70;99.90;;;;;;5057070;28;20020;-82
2022/06/13 07:17:32;;;;;;;5.28;3.30;;;15.80;99.90;;;;;;5057428;28;20020;-82
2022/06/13 07:19:58;;;;;;;5.53;3.20;;;15.80;99.90;;;;;;5074907;28;20100;-82
2022/06/13 07:22:24;;;;;;;5.68;3.40;;;15.80;99.90;;;;;;5075291;28;20036;-82
2022/06/13 07:24:51;;;;;;;7.97;4.20;;;15.90;99.90;;;;;;5074893;28;20025;-82
2022/06/13 07:27:17;;;;;;;6.55;3.90;;;15.90;99.90;;;;;;5075153;28;20048;-82
2022/06/13 07:29:43;;;;;;;4.82;3.65;;;15.90;99.90;;;;;;5074780;28;20079;-82
2022/06/13 07:32:21;;;;;;;6.40;4.50;;;15.90;99.90;;;;;;5074717;28;20361;-82
2022/06/13 07:34:50;;;;;;;4.93;3.17;;;16.00;99.90;;;;;;5074655;28;20029;-82
2022/06/13 07:40:07;;;;;;;4.95;3.60;;;16.20;99.90;;;;;;5074918;28;20061;-82
2022/06/13 07:42:39;;;;;;;6.18;3.45;;;16.20;99.90;;;;;;5056609;28;20028;-82
2022/06/13 07:45:06;;;;;;;6.78;3.42;;;16.20;99.90;;;;;;5056973;28;20561;-82
2022/06/13 07:47:32;;;;;;;5.18;2.80;;;16.10;99.90;;;;;;5074557;28;20028;-82
2022/06/13 07:49:58;;;;;;;4.93;3.10;;;16.10;99.90;;;;;;5056418;28;20476;-82
2022/06/13 07:52:23;;;;;;;6.57;3.30;;;16.10;99.90;;;;;;5056430;28;20123;-82
2022/06/13 07:54:49;;;;;;;3.72;2.67;;;16.10;99.90;;;;;;5056366;28;20031;-82
2022/06/13 07:57:15;;;;;;;3.83;2.58;;;16.10;99.90;;;;;;5074294;28;20479;-81
2022/06/13 07:59:41;;;;;;;4.55;3.05;;;16.10;99.90;;;;;;5074354;28;20029;-81
2022/06/13 08:02:18;;;;;;;6.32;3.60;;;16.10;99.90;;;;;;5074252;28;20031;-82
2022/06/13 08:04:44;;;;;;;4.30;3.22;;;16.10;99.90;;;;;;5074040;28;20039;-81
2022/06/13 08:07:11;;;;;;;4.60;3.10;;;16.10;99.90;;;;;;5073466;28;20477;-81
2022/06/13 08:09:38;;;;;;;4.53;3.47;;;16.10;99.90;;;;;;5074266;28;20017;-82
2022/06/13 08:12:06;;;;;;;4.80;4.00;;;16.30;99.90;;;;;;5056004;28;20032;-82
2022/06/13 08:14:32;;;;;;;7.05;4.40;;;16.50;99.90;;;;;;5055882;28;20035;-82
2022/06/13 08:16:58;;;;;;;7.18;4.35;;;16.60;99.90;;;;;;5056023;28;20024;-82
2022/06/13 08:19:23;;;;;;;6.22;3.67;;;16.60;99.90;;;;;;5055849;28;20028;-82
2022/06/13 08:21:51;;;;;;;6.32;3.53;;;16.70;99.90;;;;;;5055942;28;20024;-82
2022/06/13 08:24:17;;;;;;;5.05;3.63;;;16.70;99.90;;;;;;5055791;28;20145;-82
2022/06/13 08:26:44;;;;;;;4.82;3.63;;;16.90;99.90;;;;;;5056067;28;20384;-82
2022/06/13 08:29:10;;;;;;;4.45;3.40;;;16.90;99.90;;;;;;5073694;28;20366;-82
2022/06/13 08:31:36;;;;;;;7.00;3.78;;;17.00;99.90;;;;;;5073746;28;20031;-82
2022/06/13 08:34:02;;;;;;;5.75;3.03;;;17.10;99.90;;;;;;5055666;28;20461;-82
2022/06/13 08:36:28;;;;;;;5.28;3.03;;;17.10;99.90;;;;;;5073643;28;20068;-82
2022/06/13 08:38:54;;;;;;;5.50;3.53;;;17.30;99.90;;;;;;5073572;28;20028;-82
2022/06/13 08:41:37;;;;;;;5.78;4.00;;;17.40;99.90;;;;;;5056038;28;20025;-82
2022/06/13 08:44:24;;;;;;;4.03;3.35;;;17.50;99.90;;;;;;5055984;28;20384;-82
2022/06/13 08:47:02;;;;;;;5.00;4.25;;;17.50;99.90;;;;;;5055898;28;20032;-82
2022/06/13 08:50:07;;;;;;;7.25;4.03;;;17.50;99.90;;;;;;5056329;28;20028;-82
2022/06/13 08:52:59;;;;;;;5.47;4.20;;;17.70;99.90;;;;;;5056145;28;20028;-82
2022/06/13 08:55:43;;;;;;;6.00;4.32;;;17.90;99.90;;;;;;5056264;28;20020;-82
2022/06/13 08:58:19;;;;;;;6.72;4.25;;;18.30;99.90;;;;;;5056243;28;20116;-82
2022/06/13 09:01:37;;;;;;;6.53;4.45;;;18.60;99.90;;;;;;5056091;28;20017;-82
2022/06/13 09:04:14;;;;;;;5.28;3.88;;;18.60;99.90;;;;;;4986386;28;20034;-82
2022/06/13 09:07:00;;;;;;;5.65;3.70;;;18.50;99.90;;;;;;5056961;28;20069;-82
2022/06/13 09:09:28;;;;;;;8.07;4.10;;;18.30;99.90;;;;;;5074235;28;20031;-82
2022/06/13 09:12:37;;;;;;;11.20;6.10;;;18.10;99.90;;;;;;5055953;28;20062;-81
2022/06/13 09:15:17;;;;;;;4.95;3.85;;;18.00;99.90;;;;;;5062652;28;20400;-81
2022/06/13 09:18:19;;;;;;;5.75;4.88;;;17.90;99.90;;;;;;5056601;28;20056;-81
2022/06/13 09:20:59;;;;;;;6.93;4.57;;;17.80;99.90;;;;;;5046486;28;20078;-81
2022/06/13 09:24:02;;;;;;;4.57;3.40;;;17.70;99.90;;;;;;5077869;28;20023;-80
2022/06/13 09:26:49;;;;;;;5.93;3.53;;;17.70;99.90;;;;;;5019326;28;20488;-80
2022/06/13 09:29:40;;;;;;;5.10;3.22;;;17.70;99.90;;;;;;5077861;28;20025;-80
2022/06/13 09:32:15;;;;;;;5.07;2.77;;;17.70;99.90;;;;;;5059544;28;20063;-80
2022/06/13 09:34:41;;;;;;;4.72;3.03;;;17.70;99.90;;;;;;5077804;28;20139;-81
2022/06/13 09:37:14;;;;;;;4.53;3.03;;;17.70;99.90;;;;;;5077661;28;20024;-80
2022/06/13 09:39:41;;;;;;;3.60;2.17;;;17.70;99.90;;;;;;5077410;28;20036;-81
2022/06/13 09:42:30;;;;;;;72.22;12.98;;;17.70;99.90;;;;;;5059192;28;20365;-81
2022/06/13 09:45:17;;;;;;;5.10;2.50;;;17.70;99.90;;;;;;5059075;28;20036;-81
2022/06/13 09:47:54;;;;;;;4.55;2.60;;;17.70;99.90;;;;;;5076880;28;20016;-81
2022/06/13 09:50:29;;;;;;;3.83;2.38;;;17.70;99.90;;;;;;5076788;28;20028;-81
2022/06/13 09:53:10;;;;;;;57.70;7.60;;;17.60;99.90;;;;;;5058767;28;20021;-80
2022/06/13 09:55:44;;;;;;;30.10;4.90;;;17.60;99.90;;;;;;5076616;28;20024;-81
2022/06/13 09:58:25;;;;;;;5.68;1.95;;;17.70;99.90;;;;;;5076827;28;20488;-81
2022/06/13 10:01:06;;;;;;;;;;;17.80;99.90;;;;;;5077043;28;20028;-81
2022/06/13 10:04:10;;;;;;;2.70;1.70;;;17.80;99.90;;;;;;5076604;28;19915;-81
2022/06/13 10:06:47;;;;;;;2.60;1.95;;;17.90;99.90;;;;;;5046071;28;20054;-81
2022/06/13 10:09:44;;;;;;;2.25;1.75;;;17.90;99.90;;;;;;5076407;28;20427;-82
2022/06/13 10:12:31;;;;;;;3.17;1.70;;;18.00;99.90;;;;;;5076721;28;20086;-82
2022/06/13 10:15:02;;;;;;;3.55;2.00;;;18.00;99.90;;;;;;5058258;28;20048;-82
2022/06/13 10:17:52;;;;;;;3.53;1.90;;;18.00;99.90;;;;;;5076187;28;20453;-81
2022/06/13 10:20:37;;;;;;;2.50;1.70;;;17.90;99.90;;;;;;5076226;28;20534;-81
2022/06/13 10:23:39;;;;;;;4.25;1.98;;;17.80;99.90;;;;;;5076020;28;20024;-81
2022/06/13 10:26:31;;;;;;;2.90;2.03;;;17.80;99.90;;;;;;5075966;28;20043;-81
2022/06/13 10:29:24;;;;;;;5.93;1.90;;;18.00;99.90;;;;;;5071398;28;20043;-81
2022/06/13 10:32:27;;;;;;;2.72;1.70;;;18.30;99.90;;;;;;5076421;28;20048;-81
2022/06/13 10:35:26;;;;;;;2.13;1.50;;;18.40;99.90;;;;;;5061703;28;20033;-81
2022/06/13 10:38:00;;;;;;;3.38;1.75;;;18.40;99.90;;;;;;5076002;28;20075;-81
2022/06/13 10:40:26;;;;;;;2.80;1.60;;;18.40;99.90;;;;;;5075880;28;20025;-81
2022/06/13 10:42:53;;;;;;;2.63;1.80;;;18.50;99.90;;;;;;5075763;28;20012;-81
2022/06/13 10:45:19;;;;;;;2.80;1.98;;;18.60;99.90;;;;;;5075597;28;20059;-82
2022/06/13 10:47:58;;;;;;;2.10;1.50;;;18.70;99.90;;;;;;5075927;28;20013;-82
2022/06/13 10:50:39;;;;;;;4.22;1.80;;;18.70;99.90;;;;;;5074547;28;20086;-82
2022/06/13 10:53:09;;;;;;;2.40;1.65;;;18.60;99.90;;;;;;5075641;28;20166;-82
2022/06/13 10:55:41;;;;;;;2.83;1.80;;;18.50;99.90;;;;;;5075475;28;20021;-82
2022/06/13 10:58:20;;;;;;;3.38;2.25;;;18.50;99.90;;;;;;5057666;28;20137;-82
2022/06/13 11:01:25;;;;;;;3.75;1.73;;;18.50;99.90;;;;;;5075661;28;20021;-82
2022/06/13 11:04:06;;;;;;;4.43;2.38;;;18.50;99.90;;;;;;4994049;28;20461;-82
2022/06/13 11:07:01;;;;;;;;;;;18.40;99.90;;;;;;5070011;28;20041;-82
2022/06/13 11:09:31;;;;;;;5.28;3.13;;;18.40;99.90;;;;;;5048896;28;19904;-82
2022/06/13 11:12:04;;;;;;;4.80;3.17;;;18.60;99.90;;;;;;5077265;28;20039;-82
2022/06/13 11:22:37;;;;;;;5.38;3.00;;;18.70;99.90;;;;;;5074894;28;20024;-82
2022/06/13 11:23:06;;;;;;;2.92;1.52;;;18.70;99.90;;;;;;5055116;28;20032;-82
2022/06/13 11:25:34;;;;;;;3.45;1.70;;;18.80;99.90;;;;;;5053649;28;20032;-82
2022/06/13 11:28:02;;;;;;;2.17;1.60;;;18.80;99.90;;;;;;5067948;28;20016;-82
2022/06/13 11:30:28;;;;;;;4.95;1.90;;;18.80;99.90;;;;;;5074703;28;20032;-82
2022/06/13 11:33:12;;;;;;;2.30;1.63;;;18.70;99.90;;;;;;5074768;28;20021;-82
2022/06/13 11:35:43;;;;;;;2.75;1.70;;;18.50;99.90;;;;;;5056111;28;20032;-82
2022/06/13 11:38:16;;;;;;;2.40;1.35;;;18.50;99.90;;;;;;5074692;28;20032;-82
2022/06/13 11:40:45;;;;;;;2.10;1.05;;;18.50;99.90;;;;;;5055841;28;20508;-82
2022/06/13 11:43:19;;;;;;;3.08;1.50;;;18.40;99.90;;;;;;5074325;28;20035;-81
2022/06/13 11:45:57;;;;;;;3.53;1.50;;;18.30;99.90;;;;;;5074367;28;20100;-81
2022/06/13 11:48:23;;;;;;;2.80;1.20;;;18.10;99.90;;;;;;5074346;28;20032;-81
2022/06/13 11:50:55;;;;;;;1.98;1.02;;;18.00;99.90;;;;;;5073718;28;20025;-80
2022/06/13 11:53:36;;;;;;;2.17;1.02;;;17.90;99.90;;;;;;5073307;28;20082;-80
2022/06/13 11:56:06;;;;;;;2.25;1.00;;;17.90;99.90;;;;;;5074614;28;20031;-81
2022/06/13 11:58:37;;;;;;;4.35;1.10;;;17.80;99.90;;;;;;5073198;28;20064;-81
2022/06/13 12:01:21;;;;;;;1.95;1.30;;;17.90;99.90;;;;;;5074089;28;20021;-81
2022/06/13 12:04:15;;;;;;;4.43;1.40;;;17.90;99.90;;;;;;5056143;28;20028;-81
2022/06/13 12:06:47;;;;;;;2.53;1.13;;;17.90;99.90;;;;;;5056104;28;20017;-81
2022/06/13 12:09:21;;;;;;;2.42;1.25;;;18.00;99.90;;;;;;5074080;28;20034;-82
2022/06/13 12:11:54;;;;;;;1.67;1.10;;;18.10;99.90;;;;;;5074080;28;20052;-82
2022/06/13 12:14:20;;;;;;;2.47;1.33;;;18.20;99.90;;;;;;5056054;28;20115;-82
2022/06/13 12:16:49;;;;;;;2.80;1.52;;;18.30;99.90;;;;;;5074527;28;20029;-82
2022/06/13 12:19:26;;;;;;;3.40;1.80;;;18.40;99.90;;;;;;5073809;28;20103;-82
2022/06/13 12:22:09;;;;;;;2.22;1.67;;;18.70;99.90;;;;;;5074153;28;20107;-82
2022/06/13 12:24:46;;;;;;;2.35;1.40;;;18.80;99.90;;;;;;5055887;28;20546;-82
2022/06/13 12:27:27;;;;;;;2.63;1.65;;;18.80;99.90;;;;;;5055878;28;20025;-82
2022/06/13 12:30:40;;;;;;;5.25;1.90;;;18.70;99.90;;;;;;5074230;28;20024;-82
2022/06/13 12:33:20;;;;;;;2.85;1.73;;;18.70;99.90;;;;;;4992545;28;20042;-82
2022/06/13 12:36:23;;;;;;;2.63;1.70;;;18.60;99.90;;;;;;4976056;28;20038;-82
2022/06/13 12:38:55;;;;;;;4.90;2.08;;;18.60;99.90;;;;;;5058834;28;20082;-82
2022/06/13 12:42:01;;;;;;;3.13;1.90;;;18.60;99.90;;;;;;5055867;28;20389;-82
2022/06/13 12:44:39;;;;;;;5.53;1.60;;;18.60;99.90;;;;;;5074341;28;20024;-81
2022/06/13 12:47:14;;;;;;;3.55;1.60;;;18.70;99.90;;;;;;5055611;28;20389;-81
2022/06/13 12:49:50;;;;;;;2.30;1.67;;;18.70;99.90;;;;;;5073492;28;20425;-82
2022/06/13 12:52:56;;;;;;;5.38;1.77;;;18.70;99.90;;;;;;5073550;28;20031;-82
2022/06/13 12:55:35;;;;;;;4.18;2.00;;;18.80;99.90;;;;;;5073558;28;20021;-81
2022/06/13 12:58:09;;;;;;;5.47;2.20;;;19.10;99.90;;;;;;5073379;28;20086;-82
2022/06/13 13:00:57;;;;;;;4.40;2.03;;;19.50;99.90;;;;;;5073440;28;20518;-82
2022/06/13 13:03:44;;;;;;;2.40;1.50;;;19.60;99.90;;;;;;5055381;28;20020;-82
2022/06/13 13:06:17;;;;;;;;;;;19.70;99.90;;;;;;5073214;28;20489;-82
2022/06/13 13:09:02;;;;;;;;;;;19.90;99.90;;;;;;5054622;28;20287;-82
2022/06/13 13:11:42;;;;;;;;;;;19.90;99.90;;;;;;5054807;28;19911;-82
2022/06/13 13:14:26;;;;;;;;;;;20.00;99.90;;;;;;5072348;28;19904;-82
2022/06/13 13:17:06;;;;;;;;;;;20.10;99.90;;;;;;5072493;28;20026;-82
2022/06/13 13:19:32;;;;;;;;;;;20.10;99.90;;;;;;5054230;28;20038;-82
2022/06/13 13:22:01;;;;;;;;;;;20.10;99.90;;;;;;5072648;28;20400;-82
2022/06/13 13:24:40;;;;;;;;;;;20.20;99.90;;;;;;5053899;28;19909;-82
2022/06/13 13:27:08;;;;;;;;;;;20.00;99.90;;;;;;5053502;28;20366;-82
2022/06/13 13:29:37;;;;;;;;;;;19.90;99.90;;;;;;5054272;28;19911;-82
2022/06/13 13:32:21;;;;;;;;;;;19.90;99.90;;;;;;5054797;28;19904;-82
2022/06/13 13:34:47;;;;;;;;;;;19.80;99.90;;;;;;5073288;28;20381;-82
2022/06/13 13:37:31;;;;;;;;;;;19.80;99.90;;;;;;5055419;28;20006;-82
2022/06/13 13:40:00;;;;;;;;;;;19.80;99.90;;;;;;5055247;28;19912;-82
2022/06/13 13:42:31;;;;;;;;;;;19.60;99.90;;;;;;5055329;28;19904;-82
2022/06/13 13:45:03;;;;;;;;;;;19.60;99.90;;;;;;5073463;28;19904;-82
2022/06/13 13:47:31;;;;;;;;;;;19.60;99.90;;;;;;5073300;28;20319;-82
2022/06/13 13:50:00;;;;;;;;;;;19.40;99.90;;;;;;5055530;28;19912;-82
2022/06/13 13:52:29;;;;;;;;;;;19.40;99.90;;;;;;5073342;28;19904;-82
2022/06/13 13:54:56;;;;;;;;;;;19.40;99.90;;;;;;5055200;28;19905;-82
2022/06/13 13:57:26;;;;;;;;;;;19.50;99.90;;;;;;5073232;28;19915;-82